sensor_id;sensor_type;location;lat;lon;timestamp;temperature;humidity
23271;DHT22;11804;51.118;17.058;2023-02-18T00:01:02;9.00;99.90
23271;DHT22;11804;51.118;17.058;2023-02-18T00:03:30;9.00;99.90
23271;DHT22;11804;51.118;17.058;2023-02-18T00:05:57;9.00;99.90
23271;DHT22;11804;51.118;17.058;2023-02-18T00:08:25;9.10;99.90
23271;DHT22;11804;51.118;17.058;2023-02-18T00:10:53;9.10;99.90
23271;DHT22;11804;51.118;17.058;2023-02-18T00:13:20;9.10;99.90
23271;DHT22;11804;51.118;17.058;2023-02-18T00:15:48;9.10;99.90
23271;DHT22;11804;51.118;17.058;2023-02-18T00:18:16;9.00;99.90
23271;DHT22;11804;51.118;17.058;2023-02-18T00:20:43;9.00;99.90
23271;DHT22;11804;51.118;17.058;2023-02-18T00:23:11;9.00;99.90
23271;DHT22;11804;51.118;17.058;2023-02-18T00:25:39;9.00;97.30
23271;DHT22;11804;51.118;17.058;2023-02-18T00:28:06;9.00;97.50
23271;DHT22;11804;51.118;17.058;2023-02-18T00:30:34;9.00;96.00
23271;DHT22;11804;51.118;17.058;2023-02-18T00:33:03;9.00;96.70
23271;DHT22;11804;51.118;17.058;2023-02-18T00:35:31;8.90;97.80
23271;DHT22;11804;51.118;17.058;2023-02-18T00:37:58;8.90;97.40
23271;DHT22;11804;51.118;17.058;2023-02-18T00:40:26;8.80;98.00
23271;DHT22;11804;51.118;17.058;2023-02-18T00:42:53;8.80;99.00
23271;DHT22;11804;51.118;17.058;2023-02-18T00:45:21;8.70;99.90
23271;DHT22;11804;51.118;17.058;2023-02-18T00:47:48;8.70;98.30
23271;DHT22;11804;51.118;17.058;2023-02-18T00:50:16;8.70;97.80
23271;DHT22;11804;51.118;17.058;2023-02-18T00:52:44;8.70;96.80
23271;DHT22;11804;51.118;17.058;2023-02-18T00:55:11;8.70;97.90
23271;DHT22;11804;51.118;17.058;2023-02-18T00:57:39;8.60;98.30
23271;DHT22;11804;51.118;17.058;2023-02-18T01:00:07;8.60;98.30
23271;DHT22;11804;51.118;17.058;2023-02-18T01:02:35;8.50;97.40
23271;DHT22;11804;51.118;17.058;2023-02-18T01:05:03;8.50;96.50
23271;DHT22;11804;51.118;17.058;2023-02-18T01:07:30;8.50;95.10
23271;DHT22;11804;51.118;17.058;2023-02-18T01:09:58;8.50;94.30
23271;DHT22;11804;51.118;17.058;2023-02-18T01:12:26;8.50;94.20
23271;DHT22;11804;51.118;17.058;2023-02-18T01:14:53;8.50;94.60
23271;DHT22;11804;51.118;17.058;2023-02-18T01:17:21;8.40;95.00
23271;DHT22;11804;51.118;17.058;2023-02-18T01:19:49;8.40;95.60
23271;DHT22;11804;51.118;17.058;2023-02-18T01:22:16;8.40;95.90
23271;DHT22;11804;51.118;17.058;2023-02-18T01:24:44;8.30;95.80
23271;DHT22;11804;51.118;17.058;2023-02-18T01:27:12;8.30;96.00
23271;DHT22;11804;51.118;17.058;2023-02-18T01:29:39;8.20;95.00
23271;DHT22;11804;51.118;17.058;2023-02-18T01:32:07;8.20;93.30
23271;DHT22;11804;51.118;17.058;2023-02-18T01:34:34;8.30;92.10
23271;DHT22;11804;51.118;17.058;2023-02-18T01:37:02;8.30;91.20
23271;DHT22;11804;51.118;17.058;2023-02-18T01:39:31;8.30;90.30
23271;DHT22;11804;51.118;17.058;2023-02-18T01:41:59;8.30;90.30
23271;DHT22;11804;51.118;17.058;2023-02-18T01:44:28;8.30;89.10
23271;DHT22;11804;51.118;17.058;2023-02-18T01:46:55;8.30;88.70
23271;DHT22;11804;51.118;17.058;2023-02-18T01:49:29;8.30;87.80
23271;DHT22;11804;51.118;17.058;2023-02-18T01:51:59;8.30;87.10
23271;DHT22;11804;51.118;17.058;2023-02-18T01:54:33;8.30;86.60
23271;DHT22;11804;51.118;17.058;2023-02-18T01:57:06;8.20;86.70
23271;DHT22;11804;51.118;17.058;2023-02-18T01:59:48;8.20;84.80
23271;DHT22;11804;51.118;17.058;2023-02-18T02:02:17;8.20;84.50
23271;DHT22;11804;51.118;17.058;2023-02-18T02:04:45;8.10;83.60
23271;DHT22;11804;51.118;17.058;2023-02-18T02:07:14;8.20;82.30
23271;DHT22;11804;51.118;17.058;2023-02-18T02:09:43;8.10;82.20
23271;DHT22;11804;51.118;17.058;2023-02-18T02:15:05;8.20;80.40
23271;DHT22;11804;51.118;17.058;2023-02-18T02:26:20;8.00;81.30
23271;DHT22;11804;51.118;17.058;2023-02-18T02:48:48;7.60;91.90
23271;DHT22;11804;51.118;17.058;2023-02-18T02:51:25;7.60;92.90
23271;DHT22;11804;51.118;17.058;2023-02-18T02:53:53;7.60;93.70
23271;DHT22;11804;51.118;17.058;2023-02-18T02:56:23;7.60;92.20
23271;DHT22;11804;51.118;17.058;2023-02-18T02:59:00;7.60;91.20
23271;DHT22;11804;51.118;17.058;2023-02-18T03:01:40;7.60;90.30
23271;DHT22;11804;51.118;17.058;2023-02-18T03:04:28;7.60;90.00
23271;DHT22;11804;51.118;17.058;2023-02-18T03:06:57;7.60;88.20
23271;DHT22;11804;51.118;17.058;2023-02-18T03:12:35;7.60;87.70
23271;DHT22;11804;51.118;17.058;2023-02-18T03:15:12;7.60;88.00
23271;DHT22;11804;51.118;17.058;2023-02-18T03:17:50;7.50;87.60
23271;DHT22;11804;51.118;17.058;2023-02-18T03:20:26;7.50;87.10
23271;DHT22;11804;51.118;17.058;2023-02-18T03:22:50;7.50;85.20
23271;DHT22;11804;51.118;17.058;2023-02-18T03:25:21;7.50;84.90
23271;DHT22;11804;51.118;17.058;2023-02-18T03:28:01;7.50;84.40
23271;DHT22;11804;51.118;17.058;2023-02-18T03:30:45;7.40;84.20
23271;DHT22;11804;51.118;17.058;2023-02-18T03:33:13;7.40;85.00
23271;DHT22;11804;51.118;17.058;2023-02-18T03:35:43;7.40;84.60
23271;DHT22;11804;51.118;17.058;2023-02-18T03:41:04;7.30;84.40
23271;DHT22;11804;51.118;17.058;2023-02-18T03:43:33;7.30;83.00
23271;DHT22;11804;51.118;17.058;2023-02-18T03:46:02;7.30;83.20
23271;DHT22;11804;51.118;17.058;2023-02-18T03:48:29;7.30;83.40
23271;DHT22;11804;51.118;17.058;2023-02-18T03:50:57;7.30;82.90
23271;DHT22;11804;51.118;17.058;2023-02-18T03:53:25;7.30;82.60
23271;DHT22;11804;51.118;17.058;2023-02-18T03:55:52;7.20;82.80
23271;DHT22;11804;51.118;17.058;2023-02-18T03:58:20;7.20;83.20
23271;DHT22;11804;51.118;17.058;2023-02-18T04:00:47;7.20;82.90
23271;DHT22;11804;51.118;17.058;2023-02-18T04:03:15;7.10;82.80
23271;DHT22;11804;51.118;17.058;2023-02-18T04:05:44;7.20;82.50
23271;DHT22;11804;51.118;17.058;2023-02-18T04:08:13;7.10;82.80
23271;DHT22;11804;51.118;17.058;2023-02-18T04:10:41;7.10;82.80
23271;DHT22;11804;51.118;17.058;2023-02-18T04:13:10;7.10;82.80
23271;DHT22;11804;51.118;17.058;2023-02-18T04:15:37;7.10;83.30
23271;DHT22;11804;51.118;17.058;2023-02-18T04:18:05;7.00;83.60
23271;DHT22;11804;51.118;17.058;2023-02-18T04:20:33;7.00;83.90
23271;DHT22;11804;51.118;17.058;2023-02-18T04:23:00;7.00;83.20
23271;DHT22;11804;51.118;17.058;2023-02-18T04:25:28;7.00;83.50
23271;DHT22;11804;51.118;17.058;2023-02-18T04:27:55;6.90;83.90
23271;DHT22;11804;51.118;17.058;2023-02-18T04:30:24;6.90;83.50
23271;DHT22;11804;51.118;17.058;2023-02-18T04:32:52;6.90;83.90
23271;DHT22;11804;51.118;17.058;2023-02-18T04:35:20;6.90;84.50
23271;DHT22;11804;51.118;17.058;2023-02-18T04:37:48;6.90;84.50
23271;DHT22;11804;51.118;17.058;2023-02-18T04:40:16;6.90;84.60
23271;DHT22;11804;51.118;17.058;2023-02-18T04:42:44;6.90;84.80
23271;DHT22;11804;51.118;17.058;2023-02-18T04:45:11;6.90;85.00
23271;DHT22;11804;51.118;17.058;2023-02-18T04:47:39;6.90;85.60
23271;DHT22;11804;51.118;17.058;2023-02-18T04:50:07;6.90;85.80
23271;DHT22;11804;51.118;17.058;2023-02-18T04:52:35;6.90;85.70
23271;DHT22;11804;51.118;17.058;2023-02-18T04:55:04;6.90;85.70
23271;DHT22;11804;51.118;17.058;2023-02-18T04:57:32;6.90;86.20
23271;DHT22;11804;51.118;17.058;2023-02-18T04:59:59;7.00;86.90
23271;DHT22;11804;51.118;17.058;2023-02-18T05:02:30;7.00;87.90
23271;DHT22;11804;51.118;17.058;2023-02-18T05:04:58;6.90;88.60
23271;DHT22;11804;51.118;17.058;2023-02-18T05:07:25;6.90;88.40
23271;DHT22;11804;51.118;17.058;2023-02-18T05:09:53;6.90;88.40
23271;DHT22;11804;51.118;17.058;2023-02-18T05:12:20;6.90;87.80
23271;DHT22;11804;51.118;17.058;2023-02-18T05:14:48;6.90;87.90
23271;DHT22;11804;51.118;17.058;2023-02-18T05:17:16;6.90;87.80
23271;DHT22;11804;51.118;17.058;2023-02-18T05:19:44;6.90;87.40
23271;DHT22;11804;51.118;17.058;2023-02-18T05:22:11;6.90;86.80
23271;DHT22;11804;51.118;17.058;2023-02-18T05:24:41;7.00;86.00
23271;DHT22;11804;51.118;17.058;2023-02-18T05:27:08;7.00;86.40
23271;DHT22;11804;51.118;17.058;2023-02-18T05:29:36;7.00;86.30
23271;DHT22;11804;51.118;17.058;2023-02-18T05:32:05;7.00;85.90
23271;DHT22;11804;51.118;17.058;2023-02-18T05:34:33;7.00;86.00
23271;DHT22;11804;51.118;17.058;2023-02-18T05:37:00;7.00;85.50
23271;DHT22;11804;51.118;17.058;2023-02-18T05:39:28;7.00;85.40
23271;DHT22;11804;51.118;17.058;2023-02-18T05:41:56;7.00;84.90
23271;DHT22;11804;51.118;17.058;2023-02-18T05:44:23;7.10;84.60
23271;DHT22;11804;51.118;17.058;2023-02-18T05:47:04;7.10;84.10
23271;DHT22;11804;51.118;17.058;2023-02-18T05:49:28;7.10;83.30
23271;DHT22;11804;51.118;17.058;2023-02-18T05:51:57;7.20;82.60
23271;DHT22;11804;51.118;17.058;2023-02-18T05:54:25;7.20;82.60
23271;DHT22;11804;51.118;17.058;2023-02-18T05:56:53;7.20;82.30
23271;DHT22;11804;51.118;17.058;2023-02-18T05:59:21;7.30;82.30
23271;DHT22;11804;51.118;17.058;2023-02-18T06:01:49;7.20;82.30
23271;DHT22;11804;51.118;17.058;2023-02-18T06:04:17;7.20;82.40
23271;DHT22;11804;51.118;17.058;2023-02-18T06:06:45;7.30;81.80
23271;DHT22;11804;51.118;17.058;2023-02-18T06:09:13;7.30;81.80
23271;DHT22;11804;51.118;17.058;2023-02-18T06:11:42;7.30;82.30
23271;DHT22;11804;51.118;17.058;2023-02-18T06:14:09;7.30;82.10
23271;DHT22;11804;51.118;17.058;2023-02-18T06:16:37;7.30;81.80
23271;DHT22;11804;51.118;17.058;2023-02-18T06:19:04;7.30;81.40
23271;DHT22;11804;51.118;17.058;2023-02-18T06:21:32;7.30;81.20
23271;DHT22;11804;51.118;17.058;2023-02-18T06:24:00;7.40;81.20
23271;DHT22;11804;51.118;17.058;2023-02-18T06:26:28;7.40;80.70
23271;DHT22;11804;51.118;17.058;2023-02-18T06:28:55;7.40;80.70
23271;DHT22;11804;51.118;17.058;2023-02-18T06:31:23;7.50;80.50
23271;DHT22;11804;51.118;17.058;2023-02-18T06:33:51;7.50;80.70
23271;DHT22;11804;51.118;17.058;2023-02-18T06:36:20;7.50;80.00
23271;DHT22;11804;51.118;17.058;2023-02-18T06:38:48;7.50;80.00
23271;DHT22;11804;51.118;17.058;2023-02-18T06:41:15;7.60;80.00
23271;DHT22;11804;51.118;17.058;2023-02-18T06:43:43;7.60;79.70
23271;DHT22;11804;51.118;17.058;2023-02-18T06:46:11;7.60;79.40
23271;DHT22;11804;51.118;17.058;2023-02-18T06:48:39;7.60;78.60
23271;DHT22;11804;51.118;17.058;2023-02-18T06:51:06;7.70;79.00
23271;DHT22;11804;51.118;17.058;2023-02-18T06:53:34;7.70;78.80
23271;DHT22;11804;51.118;17.058;2023-02-18T06:56:02;7.70;78.70
23271;DHT22;11804;51.118;17.058;2023-02-18T06:58:30;7.70;79.30
23271;DHT22;11804;51.118;17.058;2023-02-18T07:00:59;7.60;79.10
23271;DHT22;11804;51.118;17.058;2023-02-18T07:03:27;7.70;79.20
23271;DHT22;11804;51.118;17.058;2023-02-18T07:05:54;7.60;79.30
23271;DHT22;11804;51.118;17.058;2023-02-18T07:08:22;7.60;79.70
23271;DHT22;11804;51.118;17.058;2023-02-18T07:10:50;7.60;80.40
23271;DHT22;11804;51.118;17.058;2023-02-18T07:13:17;7.60;80.80
23271;DHT22;11804;51.118;17.058;2023-02-18T07:15:45;7.60;80.60
23271;DHT22;11804;51.118;17.058;2023-02-18T07:18:13;7.60;80.80
23271;DHT22;11804;51.118;17.058;2023-02-18T07:20:40;7.60;80.10
23271;DHT22;11804;51.118;17.058;2023-02-18T07:23:08;7.60;80.20
23271;DHT22;11804;51.118;17.058;2023-02-18T07:25:36;7.60;80.40
23271;DHT22;11804;51.118;17.058;2023-02-18T07:28:04;7.60;80.30
23271;DHT22;11804;51.118;17.058;2023-02-18T07:30:32;7.70;80.30
23271;DHT22;11804;51.118;17.058;2023-02-18T07:32:59;7.70;80.30
23271;DHT22;11804;51.118;17.058;2023-02-18T07:35:27;7.70;80.10
23271;DHT22;11804;51.118;17.058;2023-02-18T07:37:55;7.70;80.30
23271;DHT22;11804;51.118;17.058;2023-02-18T07:40:23;7.80;80.10
23271;DHT22;11804;51.118;17.058;2023-02-18T07:42:51;7.90;80.00
23271;DHT22;11804;51.118;17.058;2023-02-18T07:45:18;7.90;79.40
23271;DHT22;11804;51.118;17.058;2023-02-18T07:47:46;8.00;79.20
23271;DHT22;11804;51.118;17.058;2023-02-18T07:50:14;8.00;78.60
23271;DHT22;11804;51.118;17.058;2023-02-18T07:52:41;8.10;78.20
23271;DHT22;11804;51.118;17.058;2023-02-18T07:55:09;8.10;78.10
23271;DHT22;11804;51.118;17.058;2023-02-18T07:57:36;8.10;77.90
23271;DHT22;11804;51.118;17.058;2023-02-18T08:00:07;8.20;77.70
23271;DHT22;11804;51.118;17.058;2023-02-18T08:02:34;8.20;77.50
23271;DHT22;11804;51.118;17.058;2023-02-18T08:05:02;8.20;77.60
23271;DHT22;11804;51.118;17.058;2023-02-18T08:07:30;8.30;78.00
23271;DHT22;11804;51.118;17.058;2023-02-18T08:09:58;8.30;77.20
23271;DHT22;11804;51.118;17.058;2023-02-18T08:12:26;8.30;77.60
23271;DHT22;11804;51.118;17.058;2023-02-18T08:14:54;8.30;77.90
23271;DHT22;11804;51.118;17.058;2023-02-18T08:17:21;8.30;77.90
23271;DHT22;11804;51.118;17.058;2023-02-18T08:19:49;8.40;78.50
23271;DHT22;11804;51.118;17.058;2023-02-18T08:22:16;8.40;78.40
23271;DHT22;11804;51.118;17.058;2023-02-18T08:24:44;8.40;78.20
23271;DHT22;11804;51.118;17.058;2023-02-18T08:27:12;8.40;78.40
23271;DHT22;11804;51.118;17.058;2023-02-18T08:29:40;8.40;78.50
23271;DHT22;11804;51.118;17.058;2023-02-18T08:32:07;8.40;78.60
23271;DHT22;11804;51.118;17.058;2023-02-18T08:34:35;8.50;78.90
23271;DHT22;11804;51.118;17.058;2023-02-18T08:37:03;8.50;78.30
23271;DHT22;11804;51.118;17.058;2023-02-18T08:39:38;8.60;77.90
23271;DHT22;11804;51.118;17.058;2023-02-18T08:42:05;8.70;78.00
23271;DHT22;11804;51.118;17.058;2023-02-18T08:44:33;8.70;77.70
23271;DHT22;11804;51.118;17.058;2023-02-18T08:47:01;8.80;77.20
23271;DHT22;11804;51.118;17.058;2023-02-18T08:49:29;8.90;76.70
23271;DHT22;11804;51.118;17.058;2023-02-18T08:51:56;8.90;76.00
23271;DHT22;11804;51.118;17.058;2023-02-18T08:54:24;8.80;75.90
23271;DHT22;11804;51.118;17.058;2023-02-18T08:56:54;8.80;76.20
23271;DHT22;11804;51.118;17.058;2023-02-18T08:59:23;8.80;76.60
23271;DHT22;11804;51.118;17.058;2023-02-18T09:01:52;8.80;75.70
23271;DHT22;11804;51.118;17.058;2023-02-18T09:04:20;8.80;75.20
23271;DHT22;11804;51.118;17.058;2023-02-18T09:06:49;8.70;75.30
23271;DHT22;11804;51.118;17.058;2023-02-18T09:09:17;8.70;75.90
23271;DHT22;11804;51.118;17.058;2023-02-18T09:11:45;8.70;76.00
23271;DHT22;11804;51.118;17.058;2023-02-18T09:14:13;8.60;75.90
23271;DHT22;11804;51.118;17.058;2023-02-18T09:16:42;8.70;76.10
23271;DHT22;11804;51.118;17.058;2023-02-18T09:19:10;8.70;75.90
23271;DHT22;11804;51.118;17.058;2023-02-18T09:21:37;8.80;76.30
23271;DHT22;11804;51.118;17.058;2023-02-18T09:24:05;8.80;76.30
23271;DHT22;11804;51.118;17.058;2023-02-18T09:26:33;8.70;76.50
23271;DHT22;11804;51.118;17.058;2023-02-18T09:29:01;8.80;77.00
23271;DHT22;11804;51.118;17.058;2023-02-18T09:31:28;8.90;76.70
23271;DHT22;11804;51.118;17.058;2023-02-18T09:33:59;9.00;77.00
23271;DHT22;11804;51.118;17.058;2023-02-18T09:36:27;9.00;78.30
23271;DHT22;11804;51.118;17.058;2023-02-18T09:38:55;8.90;79.70
23271;DHT22;11804;51.118;17.058;2023-02-18T09:41:36;8.90;80.70
23271;DHT22;11804;51.118;17.058;2023-02-18T09:44:04;8.90;81.80
23271;DHT22;11804;51.118;17.058;2023-02-18T09:46:43;8.70;83.80
23271;DHT22;11804;51.118;17.058;2023-02-18T09:49:12;8.70;87.00
23271;DHT22;11804;51.118;17.058;2023-02-18T09:51:36;8.60;88.80
23271;DHT22;11804;51.118;17.058;2023-02-18T09:54:04;8.50;91.40
23271;DHT22;11804;51.118;17.058;2023-02-18T09:56:35;8.50;93.00
23271;DHT22;11804;51.118;17.058;2023-02-18T09:59:05;8.50;93.70
23271;DHT22;11804;51.118;17.058;2023-02-18T10:01:37;8.50;95.00
23271;DHT22;11804;51.118;17.058;2023-02-18T10:04:14;8.50;95.10
23271;DHT22;11804;51.118;17.058;2023-02-18T10:06:38;8.50;93.70
23271;DHT22;11804;51.118;17.058;2023-02-18T10:09:31;8.40;94.20
23271;DHT22;11804;51.118;17.058;2023-02-18T10:11:42;8.40;94.10
23271;DHT22;11804;51.118;17.058;2023-02-18T10:14:13;8.40;94.50
23271;DHT22;11804;51.118;17.058;2023-02-18T10:16:43;8.40;94.00
23271;DHT22;11804;51.118;17.058;2023-02-18T10:21:59;8.40;93.30
23271;DHT22;11804;51.118;17.058;2023-02-18T10:24:33;8.40;93.90
23271;DHT22;11804;51.118;17.058;2023-02-18T10:27:04;8.30;95.00
23271;DHT22;11804;51.118;17.058;2023-02-18T10:29:33;8.40;96.80
23271;DHT22;11804;51.118;17.058;2023-02-18T10:32:22;8.30;98.20
23271;DHT22;11804;51.118;17.058;2023-02-18T10:40:39;8.40;99.90
23271;DHT22;11804;51.118;17.058;2023-02-18T10:48:42;8.40;99.90
23271;DHT22;11804;51.118;17.058;2023-02-18T10:51:23;8.30;99.90
23271;DHT22;11804;51.118;17.058;2023-02-18T10:53:51;8.20;99.90
23271;DHT22;11804;51.118;17.058;2023-02-18T10:59:22;8.10;99.90
23271;DHT22;11804;51.118;17.058;2023-02-18T11:02:02;8.10;99.90
23271;DHT22;11804;51.118;17.058;2023-02-18T11:04:41;8.20;99.90
23271;DHT22;11804;51.118;17.058;2023-02-18T11:07:21;8.20;99.90
23271;DHT22;11804;51.118;17.058;2023-02-18T11:09:51;8.10;99.90
23271;DHT22;11804;51.118;17.058;2023-02-18T11:17:46;8.40;99.90
23271;DHT22;11804;51.118;17.058;2023-02-18T11:20:31;8.20;99.90
23271;DHT22;11804;51.118;17.058;2023-02-18T11:25:37;8.40;99.90
23271;DHT22;11804;51.118;17.058;2023-02-18T11:30:52;8.40;99.90
23271;DHT22;11804;51.118;17.058;2023-02-18T11:33:27;8.40;99.90
23271;DHT22;11804;51.118;17.058;2023-02-18T11:35:54;8.40;99.90
23271;DHT22;11804;51.118;17.058;2023-02-18T11:38:37;8.30;99.90
23271;DHT22;11804;51.118;17.058;2023-02-18T11:41:16;8.10;99.90
23271;DHT22;11804;51.118;17.058;2023-02-18T11:43:41;8.00;99.90
23271;DHT22;11804;51.118;17.058;2023-02-18T11:46:18;8.10;99.90
23271;DHT22;11804;51.118;17.058;2023-02-18T11:48:47;8.20;99.90
23271;DHT22;11804;51.118;17.058;2023-02-18T11:54:02;8.20;99.90
23271;DHT22;11804;51.118;17.058;2023-02-18T11:56:33;8.20;99.90
23271;DHT22;11804;51.118;17.058;2023-02-18T11:59:03;8.30;99.90
23271;DHT22;11804;51.118;17.058;2023-02-18T12:01:49;8.20;99.90
23271;DHT22;11804;51.118;17.058;2023-02-18T12:04:16;8.20;99.90
23271;DHT22;11804;51.118;17.058;2023-02-18T12:09:49;8.20;99.90
23271;DHT22;11804;51.118;17.058;2023-02-18T12:12:29;8.20;99.90
23271;DHT22;11804;51.118;17.058;2023-02-18T12:14:57;8.10;99.90
23271;DHT22;11804;51.118;17.058;2023-02-18T12:17:57;8.10;99.90
23271;DHT22;11804;51.118;17.058;2023-02-18T12:26:20;8.20;99.90
23271;DHT22;11804;51.118;17.058;2023-02-18T12:31:50;8.10;99.90
23271;DHT22;11804;51.118;17.058;2023-02-18T12:34:42;8.00;99.90
23271;DHT22;11804;51.118;17.058;2023-02-18T12:37:39;8.00;99.90
23271;DHT22;11804;51.118;17.058;2023-02-18T12:48:32;7.70;99.90
23271;DHT22;11804;51.118;17.058;2023-02-18T12:51:10;7.70;99.90
23271;DHT22;11804;51.118;17.058;2023-02-18T12:56:31;7.70;99.90
23271;DHT22;11804;51.118;17.058;2023-02-18T13:07:38;7.60;99.90
23271;DHT22;11804;51.118;17.058;2023-02-18T13:13:15;7.50;99.90
23271;DHT22;11804;51.118;17.058;2023-02-18T13:15:49;7.60;99.90
23271;DHT22;11804;51.118;17.058;2023-02-18T13:18:30;7.60;99.90
23271;DHT22;11804;51.118;17.058;2023-02-18T13:21:03;7.50;99.90
23271;DHT22;11804;51.118;17.058;2023-02-18T13:23:42;7.50;99.90
23271;DHT22;11804;51.118;17.058;2023-02-18T13:26:08;7.50;99.90
23271;DHT22;11804;51.118;17.058;2023-02-18T13:31:46;7.50;99.90
23271;DHT22;11804;51.118;17.058;2023-02-18T13:34:30;7.50;99.90
23271;DHT22;11804;51.118;17.058;2023-02-18T13:39:48;7.50;99.90
23271;DHT22;11804;51.118;17.058;2023-02-18T13:42:24;7.50;99.90
23271;DHT22;11804;51.118;17.058;2023-02-18T13:47:45;7.50;99.90
23271;DHT22;11804;51.118;17.058;2023-02-18T13:49:58;7.60;99.90
23271;DHT22;11804;51.118;17.058;2023-02-18T13:52:26;7.60;99.90
23271;DHT22;11804;51.118;17.058;2023-02-18T13:54:55;7.50;99.90
23271;DHT22;11804;51.118;17.058;2023-02-18T13:57:25;7.50;99.90
23271;DHT22;11804;51.118;17.058;2023-02-18T14:00:04;7.40;99.90
23271;DHT22;11804;51.118;17.058;2023-02-18T14:02:33;7.30;99.90
23271;DHT22;11804;51.118;17.058;2023-02-18T14:07:51;7.40;99.90
23271;DHT22;11804;51.118;17.058;2023-02-18T14:10:24;7.40;99.90
23271;DHT22;11804;51.118;17.058;2023-02-18T14:20:46;7.60;99.90
23271;DHT22;11804;51.118;17.058;2023-02-18T14:31:27;7.60;99.90
23271;DHT22;11804;51.118;17.058;2023-02-18T14:34:16;7.70;99.90
23271;DHT22;11804;51.118;17.058;2023-02-18T14:37:02;7.70;99.90
23271;DHT22;11804;51.118;17.058;2023-02-18T14:50:43;7.80;99.90
23271;DHT22;11804;51.118;17.058;2023-02-18T14:53:14;7.80;99.90
23271;DHT22;11804;51.118;17.058;2023-02-18T14:55:47;7.90;99.90
23271;DHT22;11804;51.118;17.058;2023-02-18T14:58:38;7.90;99.90
23271;DHT22;11804;51.118;17.058;2023-02-18T15:03:50;8.00;99.90
23271;DHT22;11804;51.118;17.058;2023-02-18T15:06:30;8.00;99.90
23271;DHT22;11804;51.118;17.058;2023-02-18T15:09:11;8.00;99.90
23271;DHT22;11804;51.118;17.058;2023-02-18T15:11:35;8.10;99.90
23271;DHT22;11804;51.118;17.058;2023-02-18T15:14:17;8.10;99.90
23271;DHT22;11804;51.118;17.058;2023-02-18T15:16:40;8.10;99.90
23271;DHT22;11804;51.118;17.058;2023-02-18T15:19:15;8.20;99.90
23271;DHT22;11804;51.118;17.058;2023-02-18T15:21:41;8.30;99.90
23271;DHT22;11804;51.118;17.058;2023-02-18T15:24:20;8.40;99.90
23271;DHT22;11804;51.118;17.058;2023-02-18T15:26:47;8.50;99.90
23271;DHT22;11804;51.118;17.058;2023-02-18T15:29:22;8.70;99.90
23271;DHT22;11804;51.118;17.058;2023-02-18T15:31:50;8.90;99.90
23271;DHT22;11804;51.118;17.058;2023-02-18T15:36:58;9.20;99.90
23271;DHT22;11804;51.118;17.058;2023-02-18T15:39:27;9.40;99.90
23271;DHT22;11804;51.118;17.058;2023-02-18T15:41:57;9.50;99.90
23271;DHT22;11804;51.118;17.058;2023-02-18T15:44:27;9.60;99.90
23271;DHT22;11804;51.118;17.058;2023-02-18T15:46:58;9.70;99.90
23271;DHT22;11804;51.118;17.058;2023-02-18T15:49:24;9.70;99.90
23271;DHT22;11804;51.118;17.058;2023-02-18T15:51:55;9.70;99.90
23271;DHT22;11804;51.118;17.058;2023-02-18T15:54:23;9.70;99.90
23271;DHT22;11804;51.118;17.058;2023-02-18T15:56:52;9.80;99.90
23271;DHT22;11804;51.118;17.058;2023-02-18T15:59:29;9.80;99.90
23271;DHT22;11804;51.118;17.058;2023-02-18T16:04:41;9.80;99.90
23271;DHT22;11804;51.118;17.058;2023-02-18T16:07:28;9.80;99.90
23271;DHT22;11804;51.118;17.058;2023-02-18T16:10:08;9.80;99.90
23271;DHT22;11804;51.118;17.058;2023-02-18T16:12:37;9.70;99.90
23271;DHT22;11804;51.118;17.058;2023-02-18T16:15:08;9.70;99.90
23271;DHT22;11804;51.118;17.058;2023-02-18T16:17:35;9.70;99.90
23271;DHT22;11804;51.118;17.058;2023-02-18T16:20:23;9.70;99.90
23271;DHT22;11804;51.118;17.058;2023-02-18T16:22:50;9.80;99.90
23271;DHT22;11804;51.118;17.058;2023-02-18T16:30:31;9.70;99.90
23271;DHT22;11804;51.118;17.058;2023-02-18T16:32:59;9.80;99.90
23271;DHT22;11804;51.118;17.058;2023-02-18T16:35:28;9.70;99.90
23271;DHT22;11804;51.118;17.058;2023-02-18T16:37:56;9.90;99.90
23271;DHT22;11804;51.118;17.058;2023-02-18T16:40:27;9.80;99.90
23271;DHT22;11804;51.118;17.058;2023-02-18T16:42:59;9.80;99.90
23271;DHT22;11804;51.118;17.058;2023-02-18T16:45:35;9.80;99.90
23271;DHT22;11804;51.118;17.058;2023-02-18T16:48:05;9.90;99.90
23271;DHT22;11804;51.118;17.058;2023-02-18T16:50:33;9.90;99.90
23271;DHT22;11804;51.118;17.058;2023-02-18T16:53:01;9.90;99.90
23271;DHT22;11804;51.118;17.058;2023-02-18T16:55:30;10.00;99.90
23271;DHT22;11804;51.118;17.058;2023-02-18T16:57:58;10.10;99.90
23271;DHT22;11804;51.118;17.058;2023-02-18T17:00:25;10.20;99.90
23271;DHT22;11804;51.118;17.058;2023-02-18T17:02:55;10.20;99.90
23271;DHT22;11804;51.118;17.058;2023-02-18T17:05:29;10.20;99.90
23271;DHT22;11804;51.118;17.058;2023-02-18T17:10:46;10.00;99.90
23271;DHT22;11804;51.118;17.058;2023-02-18T17:13:16;9.90;99.90
23271;DHT22;11804;51.118;17.058;2023-02-18T17:15:45;9.90;99.90
23271;DHT22;11804;51.118;17.058;2023-02-18T17:18:13;10.00;99.90
23271;DHT22;11804;51.118;17.058;2023-02-18T17:20:41;10.00;99.90
23271;DHT22;11804;51.118;17.058;2023-02-18T17:23:13;10.00;99.90
23271;DHT22;11804;51.118;17.058;2023-02-18T17:25:42;10.00;99.90
23271;DHT22;11804;51.118;17.058;2023-02-18T17:28:09;10.10;99.90
23271;DHT22;11804;51.118;17.058;2023-02-18T17:30:39;10.10;99.90
23271;DHT22;11804;51.118;17.058;2023-02-18T17:33:09;10.10;99.90
23271;DHT22;11804;51.118;17.058;2023-02-18T17:35:36;10.10;99.90
23271;DHT22;11804;51.118;17.058;2023-02-18T17:38:12;10.10;99.90
23271;DHT22;11804;51.118;17.058;2023-02-18T17:40:38;10.10;99.90
23271;DHT22;11804;51.118;17.058;2023-02-18T17:43:08;10.10;99.90
23271;DHT22;11804;51.118;17.058;2023-02-18T17:45:39;10.10;99.90
23271;DHT22;11804;51.118;17.058;2023-02-18T17:48:05;10.10;99.90
23271;DHT22;11804;51.118;17.058;2023-02-18T17:50:33;10.10;99.90
23271;DHT22;11804;51.118;17.058;2023-02-18T17:53:01;10.10;99.90
23271;DHT22;11804;51.118;17.058;2023-02-18T17:55:31;10.10;99.90
23271;DHT22;11804;51.118;17.058;2023-02-18T17:57:59;10.10;99.90
23271;DHT22;11804;51.118;17.058;2023-02-18T18:00:32;10.10;99.90
23271;DHT22;11804;51.118;17.058;2023-02-18T18:03:00;10.10;99.90
23271;DHT22;11804;51.118;17.058;2023-02-18T18:05:30;10.10;99.90
23271;DHT22;11804;51.118;17.058;2023-02-18T18:07:59;10.10;99.90
23271;DHT22;11804;51.118;17.058;2023-02-18T18:10:30;10.10;99.90
23271;DHT22;11804;51.118;17.058;2023-02-18T18:13:01;10.10;99.90
23271;DHT22;11804;51.118;17.058;2023-02-18T18:15:40;10.10;99.90
23271;DHT22;11804;51.118;17.058;2023-02-18T18:18:10;10.10;99.90
23271;DHT22;11804;51.118;17.058;2023-02-18T18:20:39;10.00;99.90
23271;DHT22;11804;51.118;17.058;2023-02-18T18:23:09;10.00;99.90
23271;DHT22;11804;51.118;17.058;2023-02-18T18:25:42;10.00;99.90